KSUW/SUW METAR and TAF weather

Enter ICAO airport designator
Station Type Date Time Source
KSUW METAR 2020/08/15 09:55 UTC NOAA

KSUW 150955Z AUTO 26009KT 10SM OVC026 16/13 A2992 RMK AO2 T01640132


Station Type Date Time Source
KSUW Decoded METAR 2020/08/15 09:55 UTC NOAA

Superior, Richard I. Bong Airport, WI, United States (KSUW) 46-41-23N 092-05-41W
Aug 15, 2020 - 05:55 AM EDT / 2020.08.15 0955 UTC
Wind: from the W (260 degrees) at 10 MPH (9 KT):0
Visibility: 10 mile(s):0
Sky conditions: overcast
Temperature: 61.5 F (16.4 C)
Dew Point: 55.8 F (13.2 C)
Relative Humidity: 81%
Pressure (altimeter): 29.92 in. Hg (1013 hPa)
ob: KSUW 150955Z AUTO 26009KT 10SM OVC026 16/13 A2992 RMK AO2 T01640132
cycle: 10

Station Type Date Time Source
KSUW TAF UTC NOAA

Error!

Example: see airport list